sensor_id;sensor_type;location;lat;lon;timestamp;pressure;altitude;pressure_sealevel;temperature;humidity
45247;BME280;31529;51.158;7.354;2022-09-03T00:00:13;97616.69;;;19.95;37.48
45247;BME280;31529;51.158;7.354;2022-09-03T00:00:48;97616.69;;;19.95;37.92
45247;BME280;31529;51.158;7.354;2022-09-03T00:01:25;97627.09;;;19.93;37.98
45247;BME280;31529;51.158;7.354;2022-09-03T00:02:15;97620.09;;;19.92;37.39
45247;BME280;31529;51.158;7.354;2022-09-03T00:03:39;97619.66;;;19.89;37.81
45247;BME280;31529;51.158;7.354;2022-09-03T00:04:17;97621.59;;;19.89;37.61
45247;BME280;31529;51.158;7.354;2022-09-03T00:05:42;97618.81;;;19.85;38.07
45247;BME280;31529;51.158;7.354;2022-09-03T00:06:33;97622.69;;;19.84;37.97
45247;BME280;31529;51.158;7.354;2022-09-03T00:07:14;97614.91;;;19.83;37.54
45247;BME280;31529;51.158;7.354;2022-09-03T00:07:58;97614.09;;;19.82;37.92
45247;BME280;31529;51.158;7.354;2022-09-03T00:09:20;97616.38;;;19.80;37.86
45247;BME280;31529;51.158;7.354;2022-09-03T00:09:59;97610.97;;;19.80;37.85
45247;BME280;31529;51.158;7.354;2022-09-03T00:10:44;97618.66;;;19.78;37.91
45247;BME280;31529;51.158;7.354;2022-09-03T00:11:23;97618.22;;;19.76;38.07
45247;BME280;31529;51.158;7.354;2022-09-03T00:12:41;97612.72;;;19.73;38.31
45247;BME280;31529;51.158;7.354;2022-09-03T00:13:16;97617.66;;;19.70;38.15
45247;BME280;31529;51.158;7.354;2022-09-03T00:14:08;97616.53;;;19.72;38.22
45247;BME280;31529;51.158;7.354;2022-09-03T00:14:56;97610.69;;;19.69;38.59
45247;BME280;31529;51.158;7.354;2022-09-03T00:15:32;97606.75;;;19.67;38.23
45247;BME280;31529;51.158;7.354;2022-09-03T00:16:07;97605.19;;;19.66;38.50
45247;BME280;31529;51.158;7.354;2022-09-03T00:16:45;97606.75;;;19.67;38.15
45247;BME280;31529;51.158;7.354;2022-09-03T00:17:21;97605.97;;;19.66;38.36
45247;BME280;31529;51.158;7.354;2022-09-03T00:18:03;97618.31;;;19.64;38.08
45247;BME280;31529;51.158;7.354;2022-09-03T00:18:43;97613.66;;;19.64;38.62
45247;BME280;31529;51.158;7.354;2022-09-03T00:19:19;97609.84;;;19.65;38.23
45247;BME280;31529;51.158;7.354;2022-09-03T00:20:03;97609.84;;;19.65;38.32
45247;BME280;31529;51.158;7.354;2022-09-03T00:21:48;97605.91;;;19.63;38.45
45247;BME280;31529;51.158;7.354;2022-09-03T00:22:44;97610.88;;;19.61;38.75
45247;BME280;31529;51.158;7.354;2022-09-03T00:23:19;97613.59;;;19.61;38.35
45247;BME280;31529;51.158;7.354;2022-09-03T00:23:52;97608.16;;;19.61;38.53
45247;BME280;31529;51.158;7.354;2022-09-03T00:24:27;97614.28;;;19.58;38.26
45247;BME280;31529;51.158;7.354;2022-09-03T00:25:04;97604.25;;;19.58;38.68
45247;BME280;31529;51.158;7.354;2022-09-03T00:25:44;97605.72;;;19.56;38.69
45247;BME280;31529;51.158;7.354;2022-09-03T00:26:27;97608.81;;;19.54;38.82
45247;BME280;31529;51.158;7.354;2022-09-03T00:27:05;97613.84;;;19.56;38.70
45247;BME280;31529;51.158;7.354;2022-09-03T00:27:44;97606.16;;;19.58;38.52
45247;BME280;31529;51.158;7.354;2022-09-03T00:28:34;97608.09;;;19.57;38.45
45247;BME280;31529;51.158;7.354;2022-09-03T00:29:18;97613.50;;;19.57;38.76
45247;BME280;31529;51.158;7.354;2022-09-03T00:29:56;97608.84;;;19.58;38.33
45247;BME280;31529;51.158;7.354;2022-09-03T00:30:31;97608.44;;;19.56;38.80
45247;BME280;31529;51.158;7.354;2022-09-03T00:31:10;97607.22;;;19.53;38.94
45247;BME280;31529;51.158;7.354;2022-09-03T00:31:49;97606.34;;;19.49;38.82
45247;BME280;31529;51.158;7.354;2022-09-03T00:32:42;97604.09;;;19.51;38.80
45247;BME280;31529;51.158;7.354;2022-09-03T00:33:17;97608.72;;;19.50;38.73
45247;BME280;31529;51.158;7.354;2022-09-03T00:33:53;97607.38;;;19.44;39.06
45247;BME280;31529;51.158;7.354;2022-09-03T00:34:37;97606.25;;;19.45;38.53
45247;BME280;31529;51.158;7.354;2022-09-03T00:35:19;97603.13;;;19.43;38.72
45247;BME280;31529;51.158;7.354;2022-09-03T00:37:14;97603.31;;;19.50;38.95
45247;BME280;31529;51.158;7.354;2022-09-03T00:37:46;97608.38;;;19.52;38.81
45247;BME280;31529;51.158;7.354;2022-09-03T00:38:18;97604.44;;;19.49;38.92
45247;BME280;31529;51.158;7.354;2022-09-03T00:38:51;97611.75;;;19.49;38.92
45247;BME280;31529;51.158;7.354;2022-09-03T00:39:24;97608.38;;;19.52;38.96
45247;BME280;31529;51.158;7.354;2022-09-03T00:39:57;97608.38;;;19.52;38.77
45247;BME280;31529;51.158;7.354;2022-09-03T00:42:25;97606.88;;;19.55;38.96
45247;BME280;31529;51.158;7.354;2022-09-03T00:44:08;97609.16;;;19.53;38.87
45247;BME280;31529;51.158;7.354;2022-09-03T00:45:51;97616.41;;;19.48;38.47
45247;BME280;31529;51.158;7.354;2022-09-03T00:46:46;97611.00;;;19.48;38.93
45247;BME280;31529;51.158;7.354;2022-09-03T00:47:28;97609.41;;;19.47;38.57
45247;BME280;31529;51.158;7.354;2022-09-03T00:48:20;97614.47;;;19.49;38.82
45247;BME280;31529;51.158;7.354;2022-09-03T00:51:20;97609.41;;;19.47;38.97
45247;BME280;31529;51.158;7.354;2022-09-03T00:53:54;97618.66;;;19.46;38.87
45247;BME280;31529;51.158;7.354;2022-09-03T00:54:47;97609.75;;;19.46;38.76
45247;BME280;31529;51.158;7.354;2022-09-03T00:56:12;97610.09;;;19.44;38.95
45247;BME280;31529;51.158;7.354;2022-09-03T00:57:34;97611.69;;;19.45;39.35
45247;BME280;31529;51.158;7.354;2022-09-03T01:00:26;97614.81;;;19.47;38.89
45247;BME280;31529;51.158;7.354;2022-09-03T01:00:59;97608.19;;;19.45;39.31
45247;BME280;31529;51.158;7.354;2022-09-03T01:02:23;97614.38;;;19.45;38.78
45247;BME280;31529;51.158;7.354;2022-09-03T01:03:05;97601.63;;;19.46;38.55
45247;BME280;31529;51.158;7.354;2022-09-03T01:03:47;97610.09;;;19.44;38.81
45247;BME280;31529;51.158;7.354;2022-09-03T01:06:15;97606.97;;;19.42;39.40
45247;BME280;31529;51.158;7.354;2022-09-03T01:06:58;97606.59;;;19.44;38.79
45247;BME280;31529;51.158;7.354;2022-09-03T01:08:01;97595.34;;;19.42;38.64
45247;BME280;31529;51.158;7.354;2022-09-03T01:09:39;97603.03;;;19.40;39.07
45247;BME280;31529;51.158;7.354;2022-09-03T01:10:45;97602.25;;;19.39;38.81
45247;BME280;31529;51.158;7.354;2022-09-03T01:11:29;97599.38;;;19.32;39.31
45247;BME280;31529;51.158;7.354;2022-09-03T01:13:43;97605.22;;;19.34;39.29
45247;BME280;31529;51.158;7.354;2022-09-03T01:15:06;97602.63;;;19.22;39.63
45247;BME280;31529;51.158;7.354;2022-09-03T01:15:58;97596.94;;;19.27;39.69
45247;BME280;31529;51.158;7.354;2022-09-03T01:16:44;97603.91;;;19.28;39.37
45247;BME280;31529;51.158;7.354;2022-09-03T01:18:34;97600.78;;;19.26;39.25
45247;BME280;31529;51.158;7.354;2022-09-03T01:21:12;97601.56;;;19.26;39.26
45247;BME280;31529;51.158;7.354;2022-09-03T01:22:04;97596.50;;;19.25;39.71
45247;BME280;31529;51.158;7.354;2022-09-03T01:22:50;97594.94;;;19.24;39.78
45247;BME280;31529;51.158;7.354;2022-09-03T01:23:55;97594.50;;;19.22;39.66
45247;BME280;31529;51.158;7.354;2022-09-03T01:25:48;97599.91;;;19.22;39.38
45247;BME280;31529;51.158;7.354;2022-09-03T01:29:58;97598.66;;;19.19;39.39
45247;BME280;31529;51.158;7.354;2022-09-03T01:31:02;97604.09;;;19.19;39.31
45247;BME280;31529;51.158;7.354;2022-09-03T01:32:50;97597.91;;;19.19;39.38
45247;BME280;31529;51.158;7.354;2022-09-03T01:33:32;97592.81;;;19.17;39.60
45247;BME280;31529;51.158;7.354;2022-09-03T01:35:21;97604.00;;;19.16;39.74
45247;BME280;31529;51.158;7.354;2022-09-03T01:36:19;97599.72;;;19.15;39.98
45247;BME280;31529;51.158;7.354;2022-09-03T01:37:09;97596.22;;;19.14;39.61
45247;BME280;31529;51.158;7.354;2022-09-03T01:38:55;97590.91;;;19.18;39.23
45247;BME280;31529;51.158;7.354;2022-09-03T01:39:38;97595.19;;;19.19;39.53
45247;BME280;31529;51.158;7.354;2022-09-03T01:42:54;97598.59;;;19.16;39.68
45247;BME280;31529;51.158;7.354;2022-09-03T01:43:43;97593.97;;;19.16;39.38
45247;BME280;31529;51.158;7.354;2022-09-03T01:45:21;97597.03;;;19.15;39.83
45247;BME280;31529;51.158;7.354;2022-09-03T01:46:18;97597.72;;;19.11;39.62
45247;BME280;31529;51.158;7.354;2022-09-03T01:47:01;97591.63;;;19.15;39.93
45247;BME280;31529;51.158;7.354;2022-09-03T01:49:23;97598.91;;;19.14;40.03
45247;BME280;31529;51.158;7.354;2022-09-03T01:50:13;97594.22;;;19.11;39.48
45247;BME280;31529;51.158;7.354;2022-09-03T01:51:17;97596.31;;;19.18;39.54
45247;BME280;31529;51.158;7.354;2022-09-03T01:51:50;97585.94;;;19.20;39.87
45247;BME280;31529;51.158;7.354;2022-09-03T01:56:09;97596.31;;;19.18;39.78
45247;BME280;31529;51.158;7.354;2022-09-03T01:58:28;97591.72;;;19.18;39.35
45247;BME280;31529;51.158;7.354;2022-09-03T01:59:10;97591.63;;;19.15;39.45
45247;BME280;31529;51.158;7.354;2022-09-03T02:00:00;97589.69;;;19.15;39.38
45247;BME280;31529;51.158;7.354;2022-09-03T02:00:38;97589.69;;;19.15;39.54
45247;BME280;31529;51.158;7.354;2022-09-03T02:01:17;97593.16;;;19.16;39.39
45247;BME280;31529;51.158;7.354;2022-09-03T02:01:58;97593.16;;;19.16;39.90
45247;BME280;31529;51.158;7.354;2022-09-03T02:02:35;97594.31;;;19.15;39.59
45247;BME280;31529;51.158;7.354;2022-09-03T02:03:06;97584.97;;;19.12;39.62
45247;BME280;31529;51.158;7.354;2022-09-03T02:03:41;97591.63;;;19.15;39.98
45247;BME280;31529;51.158;7.354;2022-09-03T02:04:22;97595.53;;;19.17;40.06
45247;BME280;31529;51.158;7.354;2022-09-03T02:05:32;97593.25;;;19.19;39.81
45247;BME280;31529;51.158;7.354;2022-09-03T02:06:05;97595.19;;;19.19;39.36
45247;BME280;31529;51.158;7.354;2022-09-03T02:06:38;97595.53;;;19.17;40.01
45247;BME280;31529;51.158;7.354;2022-09-03T02:07:10;97590.38;;;19.12;39.99
45247;BME280;31529;51.158;7.354;2022-09-03T02:07:45;97587.59;;;19.08;40.13
45247;BME280;31529;51.158;7.354;2022-09-03T02:08:25;97592.31;;;19.11;39.48
45247;BME280;31529;51.158;7.354;2022-09-03T02:08:57;97593.78;;;19.09;40.11
45247;BME280;31529;51.158;7.354;2022-09-03T02:09:28;97591.09;;;19.09;39.65
45247;BME280;31529;51.158;7.354;2022-09-03T02:09:59;97588.38;;;19.09;39.63
45247;BME280;31529;51.158;7.354;2022-09-03T02:10:39;97591.88;;;19.09;39.86
45247;BME280;31529;51.158;7.354;2022-09-03T02:11:13;97589.50;;;19.08;40.16
45247;BME280;31529;51.158;7.354;2022-09-03T02:11:45;97597.28;;;19.09;39.66
45247;BME280;31529;51.158;7.354;2022-09-03T02:12:23;97591.09;;;19.09;40.33
45247;BME280;31529;51.158;7.354;2022-09-03T02:13:04;97591.88;;;19.09;39.99
45247;BME280;31529;51.158;7.354;2022-09-03T02:13:57;97584.09;;;19.08;40.29
45247;BME280;31529;51.158;7.354;2022-09-03T02:14:30;97591.09;;;19.09;40.60
45247;BME280;31529;51.158;7.354;2022-09-03T02:15:03;97596.84;;;19.07;39.90
45247;BME280;31529;51.158;7.354;2022-09-03T02:15:37;97594.56;;;19.09;40.23
45247;BME280;31529;51.158;7.354;2022-09-03T02:16:15;97592.31;;;19.11;39.97
45247;BME280;31529;51.158;7.354;2022-09-03T02:16:49;97592.31;;;19.11;39.99
45247;BME280;31529;51.158;7.354;2022-09-03T02:17:20;97587.66;;;19.12;39.92
45247;BME280;31529;51.158;7.354;2022-09-03T02:17:54;97589.59;;;19.11;40.39
45247;BME280;31529;51.158;7.354;2022-09-03T02:18:30;97595.44;;;19.14;39.99
45247;BME280;31529;51.158;7.354;2022-09-03T02:19:07;97590.03;;;19.14;39.97
45247;BME280;31529;51.158;7.354;2022-09-03T02:19:42;97434.56;;;18.12;40.15
45247;BME280;31529;51.158;7.354;2022-09-03T02:20:15;97588.19;;;19.18;39.50
45247;BME280;31529;51.158;7.354;2022-09-03T02:20:50;97586.28;;;19.18;40.18
45247;BME280;31529;51.158;7.354;2022-09-03T02:21:24;97594.03;;;19.20;40.33
45247;BME280;31529;51.158;7.354;2022-09-03T02:21:57;97588.63;;;19.20;39.85
45247;BME280;31529;51.158;7.354;2022-09-03T02:22:28;97588.63;;;19.20;39.49
45247;BME280;31529;51.158;7.354;2022-09-03T02:22:59;97586.97;;;19.15;39.59
45247;BME280;31529;51.158;7.354;2022-09-03T02:23:30;97591.63;;;19.15;39.71
45247;BME280;31529;51.158;7.354;2022-09-03T02:24:02;97590.56;;;19.19;40.10
45247;BME280;31529;51.158;7.354;2022-09-03T02:24:34;97594.03;;;19.20;40.16
45247;BME280;31529;51.158;7.354;2022-09-03T02:25:06;97583.22;;;19.20;39.64
45247;BME280;31529;51.158;7.354;2022-09-03T02:25:38;97591.81;;;19.22;39.80
45247;BME280;31529;51.158;7.354;2022-09-03T02:26:18;97588.28;;;19.21;39.94
45247;BME280;31529;51.158;7.354;2022-09-03T02:26:52;97582.44;;;19.19;39.61
45247;BME280;31529;51.158;7.354;2022-09-03T02:27:24;97586.38;;;19.22;39.70
45247;BME280;31529;51.158;7.354;2022-09-03T02:27:55;97580.16;;;19.21;40.01
45247;BME280;31529;51.158;7.354;2022-09-03T02:28:28;97584.81;;;19.21;39.74
45247;BME280;31529;51.158;7.354;2022-09-03T02:29:02;97588.28;;;19.21;39.74
45247;BME280;31529;51.158;7.354;2022-09-03T02:29:33;97580.50;;;19.20;39.90
45247;BME280;31529;51.158;7.354;2022-09-03T02:30:05;97586.72;;;19.20;39.91
45247;BME280;31529;51.158;7.354;2022-09-03T02:30:36;97582.88;;;19.21;40.09
45247;BME280;31529;51.158;7.354;2022-09-03T02:31:07;97584.38;;;19.19;39.69
45247;BME280;31529;51.158;7.354;2022-09-03T02:31:39;97578.53;;;19.17;40.11
45247;BME280;31529;51.158;7.354;2022-09-03T02:32:10;97580.47;;;19.16;39.83
45247;BME280;31529;51.158;7.354;2022-09-03T02:32:41;97582.34;;;19.16;39.73
45247;BME280;31529;51.158;7.354;2022-09-03T02:33:13;97580.88;;;19.18;39.73
45247;BME280;31529;51.158;7.354;2022-09-03T02:33:45;97581.31;;;19.20;40.30
45247;BME280;31529;51.158;7.354;2022-09-03T02:34:18;97577.28;;;19.14;39.98
45247;BME280;31529;51.158;7.354;2022-09-03T02:34:49;97580.38;;;19.13;40.20
45247;BME280;31529;51.158;7.354;2022-09-03T02:35:20;97582.69;;;19.14;40.51
45247;BME280;31529;51.158;7.354;2022-09-03T02:35:52;97580.78;;;19.15;40.03
45247;BME280;31529;51.158;7.354;2022-09-03T02:36:28;97583.94;;;19.17;40.06
45247;BME280;31529;51.158;7.354;2022-09-03T02:37:10;97590.91;;;19.18;40.26
45247;BME280;31529;51.158;7.354;2022-09-03T02:37:42;97582.44;;;19.19;40.07
45247;BME280;31529;51.158;7.354;2022-09-03T02:38:15;97585.88;;;19.16;40.49
45247;BME280;31529;51.158;7.354;2022-09-03T02:38:48;97585.41;;;19.14;39.74
45247;BME280;31529;51.158;7.354;2022-09-03T02:39:19;97589.69;;;19.15;39.91
45247;BME280;31529;51.158;7.354;2022-09-03T02:39:50;97586.97;;;19.15;40.36
45247;BME280;31529;51.158;7.354;2022-09-03T02:40:21;97587.31;;;19.14;39.88
45247;BME280;31529;51.158;7.354;2022-09-03T02:40:53;97587.31;;;19.14;40.11
45247;BME280;31529;51.158;7.354;2022-09-03T02:41:24;97584.19;;;19.11;39.79
45247;BME280;31529;51.158;7.354;2022-09-03T02:41:57;97588.47;;;19.13;40.08
45247;BME280;31529;51.158;7.354;2022-09-03T02:42:28;97586.56;;;19.13;39.97
45247;BME280;31529;51.158;7.354;2022-09-03T02:42:59;97584.19;;;19.11;40.11
45247;BME280;31529;51.158;7.354;2022-09-03T02:43:37;97586.91;;;19.11;40.05
45247;BME280;31529;51.158;7.354;2022-09-03T02:44:28;97585.78;;;19.13;39.70
45247;BME280;31529;51.158;7.354;2022-09-03T02:45:06;97584.19;;;19.11;40.12
45247;BME280;31529;51.158;7.354;2022-09-03T02:45:50;97583.41;;;19.11;40.36
45247;BME280;31529;51.158;7.354;2022-09-03T02:46:32;97579.94;;;19.10;40.42
45247;BME280;31529;51.158;7.354;2022-09-03T02:47:08;97589.06;;;19.06;40.12
45247;BME280;31529;51.158;7.354;2022-09-03T02:47:39;97576.31;;;19.06;40.62
45247;BME280;31529;51.158;7.354;2022-09-03T02:48:15;97581.38;;;19.08;40.04
45247;BME280;31529;51.158;7.354;2022-09-03T02:48:51;97589.16;;;19.09;40.67
45247;BME280;31529;51.158;7.354;2022-09-03T02:49:23;97586.47;;;19.09;39.96
45247;BME280;31529;51.158;7.354;2022-09-03T02:49:54;97586.91;;;19.11;40.24
45247;BME280;31529;51.158;7.354;2022-09-03T02:50:25;97586.91;;;19.11;40.08
45247;BME280;31529;51.158;7.354;2022-09-03T02:50:56;97589.59;;;19.11;39.96
45247;BME280;31529;51.158;7.354;2022-09-03T02:51:30;97585.34;;;19.10;40.29
45247;BME280;31529;51.158;7.354;2022-09-03T02:52:08;97578.78;;;19.11;39.92
45247;BME280;31529;51.158;7.354;2022-09-03T02:52:41;97587.31;;;19.14;40.51
45247;BME280;31529;51.158;7.354;2022-09-03T02:53:12;97582.25;;;19.12;40.53
45247;BME280;31529;51.158;7.354;2022-09-03T02:53:44;97514.38;;;18.69;40.60
45247;BME280;31529;51.158;7.354;2022-09-03T02:54:15;97589.69;;;19.15;40.13
45247;BME280;31529;51.158;7.354;2022-09-03T02:54:46;97587.66;;;19.12;40.48
45247;BME280;31529;51.158;7.354;2022-09-03T02:55:18;97580.00;;;19.14;39.89
45247;BME280;31529;51.158;7.354;2022-09-03T02:55:49;97583.50;;;19.15;40.48
45247;BME280;31529;51.158;7.354;2022-09-03T02:56:20;97590.03;;;19.14;40.84
45247;BME280;31529;51.158;7.354;2022-09-03T02:56:54;97586.22;;;19.15;40.25
45247;BME280;31529;51.158;7.354;2022-09-03T02:57:25;97581.13;;;19.13;40.09
45247;BME280;31529;51.158;7.354;2022-09-03T02:57:57;97581.13;;;19.13;40.57
45247;BME280;31529;51.158;7.354;2022-09-03T02:58:29;97584.63;;;19.14;40.80
45247;BME280;31529;51.158;7.354;2022-09-03T02:59:04;97579.22;;;19.14;40.65
45247;BME280;31529;51.158;7.354;2022-09-03T02:59:36;97581.91;;;19.14;39.92
45247;BME280;31529;51.158;7.354;2022-09-03T03:00:09;97583.06;;;19.13;40.40
45247;BME280;31529;51.158;7.354;2022-09-03T03:00:40;97584.19;;;19.11;40.28
45247;BME280;31529;51.158;7.354;2022-09-03T03:01:12;97577.66;;;19.13;40.59
45247;BME280;31529;51.158;7.354;2022-09-03T03:01:43;97579.56;;;19.12;40.50
45247;BME280;31529;51.158;7.354;2022-09-03T03:02:14;97583.75;;;19.09;40.68
45247;BME280;31529;51.158;7.354;2022-09-03T03:02:45;97583.75;;;19.09;40.64
45247;BME280;31529;51.158;7.354;2022-09-03T03:03:17;97579.13;;;19.10;40.87
45247;BME280;31529;51.158;7.354;2022-09-03T03:03:48;97579.13;;;19.10;40.50
45247;BME280;31529;51.158;7.354;2022-09-03T03:04:20;97580.63;;;19.07;40.41
45247;BME280;31529;51.158;7.354;2022-09-03T03:04:51;97575.97;;;19.08;40.39
45247;BME280;31529;51.158;7.354;2022-09-03T03:05:25;97581.38;;;19.08;40.18
45247;BME280;31529;51.158;7.354;2022-09-03T03:06:05;97579.03;;;19.06;40.17
45247;BME280;31529;51.158;7.354;2022-09-03T03:06:37;97573.63;;;19.06;40.64
45247;BME280;31529;51.158;7.354;2022-09-03T03:07:08;97575.88;;;19.04;40.89
45247;BME280;31529;51.158;7.354;2022-09-03T03:07:39;97582.88;;;19.05;40.35
45247;BME280;31529;51.158;7.354;2022-09-03T03:08:10;97580.97;;;19.06;40.63
45247;BME280;31529;51.158;7.354;2022-09-03T03:08:45;97582.09;;;19.05;40.83
45247;BME280;31529;51.158;7.354;2022-09-03T03:09:17;97574.78;;;19.05;40.45
45247;BME280;31529;51.158;7.354;2022-09-03T03:09:48;97579.41;;;19.05;40.17
45247;BME280;31529;51.158;7.354;2022-09-03T03:10:19;97581.31;;;19.04;40.60
45247;BME280;31529;51.158;7.354;2022-09-03T03:10:51;97578.25;;;19.06;40.79
45247;BME280;31529;51.158;7.354;2022-09-03T03:11:23;97582.88;;;19.05;40.39
45247;BME280;31529;51.158;7.354;2022-09-03T03:11:56;97582.09;;;19.05;40.68
45247;BME280;31529;51.158;7.354;2022-09-03T03:12:27;97588.28;;;19.05;40.89
45247;BME280;31529;51.158;7.354;2022-09-03T03:12:58;97582.44;;;19.03;40.61
45247;BME280;31529;51.158;7.354;2022-09-03T03:13:30;97580.88;;;19.02;40.80
45247;BME280;31529;51.158;7.354;2022-09-03T03:14:01;97577.38;;;19.02;40.84
45247;BME280;31529;51.158;7.354;2022-09-03T03:14:33;97579.31;;;19.01;40.93
45247;BME280;31529;51.158;7.354;2022-09-03T03:15:04;97583.56;;;19.02;40.88
45247;BME280;31529;51.158;7.354;2022-09-03T03:15:35;97582.00;;;19.01;40.92
45247;BME280;31529;51.158;7.354;2022-09-03T03:16:07;97580.88;;;19.02;40.56
45247;BME280;31529;51.158;7.354;2022-09-03T03:16:37;97576.59;;;19.01;40.87
45247;BME280;31529;51.158;7.354;2022-09-03T03:17:09;97578.06;;;18.99;40.60
45247;BME280;31529;51.158;7.354;2022-09-03T03:17:40;97577.72;;;19.00;40.60
45247;BME280;31529;51.158;7.354;2022-09-03T03:18:11;97573.47;;;18.99;41.04
45247;BME280;31529;51.158;7.354;2022-09-03T03:18:43;97576.16;;;18.99;41.03
45247;BME280;31529;51.158;7.354;2022-09-03T03:19:18;97573.47;;;18.99;40.61
45247;BME280;31529;51.158;7.354;2022-09-03T03:19:49;97577.28;;;18.98;41.19
45247;BME280;31529;51.158;7.354;2022-09-03T03:20:20;97571.88;;;18.98;40.97
45247;BME280;31529;51.158;7.354;2022-09-03T03:20:51;97576.16;;;18.99;40.75
45247;BME280;31529;51.158;7.354;2022-09-03T03:21:22;97572.66;;;18.99;41.04
45247;BME280;31529;51.158;7.354;2022-09-03T03:21:53;97570.31;;;18.97;41.32
45247;BME280;31529;51.158;7.354;2022-09-03T03:22:24;97577.28;;;18.98;40.79
45247;BME280;31529;51.158;7.354;2022-09-03T03:22:55;97581.91;;;18.98;41.34
45247;BME280;31529;51.158;7.354;2022-09-03T03:23:26;97569.97;;;18.99;41.13
45247;BME280;31529;51.158;7.354;2022-09-03T03:23:57;97570.31;;;18.97;40.72
45247;BME280;31529;51.158;7.354;2022-09-03T03:24:28;97568.41;;;18.98;41.01
45247;BME280;31529;51.158;7.354;2022-09-03T03:24:59;97569.53;;;18.97;41.14
45247;BME280;31529;51.158;7.354;2022-09-03T03:25:31;97571.09;;;18.98;41.21
45247;BME280;31529;51.158;7.354;2022-09-03T03:26:07;97575.75;;;18.97;40.43
45247;BME280;31529;51.158;7.354;2022-09-03T03:26:40;97573.47;;;18.99;40.95
45247;BME280;31529;51.158;7.354;2022-09-03T03:27:11;97571.44;;;18.96;40.77
45247;BME280;31529;51.158;7.354;2022-09-03T03:27:44;97573.38;;;18.96;41.04
45247;BME280;31529;51.158;7.354;2022-09-03T03:28:15;97569.44;;;18.93;41.15
45247;BME280;31529;51.158;7.354;2022-09-03T03:28:54;97576.75;;;18.92;40.92
45247;BME280;31529;51.158;7.354;2022-09-03T03:29:26;97569.44;;;18.93;40.83
45247;BME280;31529;51.158;7.354;2022-09-03T03:29:58;97568.31;;;18.94;41.13
45247;BME280;31529;51.158;7.354;2022-09-03T03:30:29;97571.00;;;18.94;41.07
45247;BME280;31529;51.158;7.354;2022-09-03T03:31:08;97569.88;;;18.95;41.01
45247;BME280;31529;51.158;7.354;2022-09-03T03:31:41;97569.44;;;18.93;41.45
45247;BME280;31529;51.158;7.354;2022-09-03T03:32:12;97567.53;;;18.94;40.69
45247;BME280;31529;51.158;7.354;2022-09-03T03:32:43;97558.63;;;18.93;40.85
45247;BME280;31529;51.158;7.354;2022-09-03T03:33:14;97555.91;;;18.93;40.92
45247;BME280;31529;51.158;7.354;2022-09-03T03:33:52;97564.03;;;18.93;41.17
45247;BME280;31529;51.158;7.354;2022-09-03T03:34:24;97562.47;;;18.92;41.53
45247;BME280;31529;51.158;7.354;2022-09-03T03:34:55;97569.00;;;18.91;41.23
45247;BME280;31529;51.158;7.354;2022-09-03T03:35:26;97566.28;;;18.91;41.36
45247;BME280;31529;51.158;7.354;2022-09-03T03:35:58;97565.16;;;18.92;41.19
45247;BME280;31529;51.158;7.354;2022-09-03T03:36:33;97570.56;;;18.92;41.02
45247;BME280;31529;51.158;7.354;2022-09-03T03:37:05;97564.75;;;18.90;41.08
45247;BME280;31529;51.158;7.354;2022-09-03T03:37:36;97569.00;;;18.91;41.40
45247;BME280;31529;51.158;7.354;2022-09-03T03:38:07;97563.59;;;18.91;41.28
45247;BME280;31529;51.158;7.354;2022-09-03T03:38:38;97570.56;;;18.92;41.08
45247;BME280;31529;51.158;7.354;2022-09-03T03:39:10;97567.09;;;18.91;40.97
45247;BME280;31529;51.158;7.354;2022-09-03T03:39:41;97568.31;;;18.94;41.26
45247;BME280;31529;51.158;7.354;2022-09-03T03:40:12;97559.75;;;18.92;41.34
45247;BME280;31529;51.158;7.354;2022-09-03T03:40:43;97563.25;;;18.92;40.91
45247;BME280;31529;51.158;7.354;2022-09-03T03:41:18;97568.66;;;18.92;41.23
45247;BME280;31529;51.158;7.354;2022-09-03T03:41:52;97558.63;;;18.93;41.19
45247;BME280;31529;51.158;7.354;2022-09-03T03:42:23;97557.06;;;18.92;41.09
45247;BME280;31529;51.158;7.354;2022-09-03T03:42:56;97566.66;;;18.89;41.22
45247;BME280;31529;51.158;7.354;2022-09-03T03:43:28;97567.88;;;18.92;40.75
45247;BME280;31529;51.158;7.354;2022-09-03T03:44:00;97570.56;;;18.92;41.41
45247;BME280;31529;51.158;7.354;2022-09-03T03:44:32;97565.94;;;18.92;41.29
45247;BME280;31529;51.158;7.354;2022-09-03T03:45:04;97564.03;;;18.93;41.48
45247;BME280;31529;51.158;7.354;2022-09-03T03:45:36;97564.47;;;18.95;40.95
45247;BME280;31529;51.158;7.354;2022-09-03T03:46:07;97565.59;;;18.94;40.70
45247;BME280;31529;51.158;7.354;2022-09-03T03:46:40;97563.69;;;18.95;40.93
45247;BME280;31529;51.158;7.354;2022-09-03T03:47:11;97564.03;;;18.93;40.83
45247;BME280;31529;51.158;7.354;2022-09-03T03:47:42;97562.91;;;18.94;41.18
45247;BME280;31529;51.158;7.354;2022-09-03T03:48:13;97567.88;;;18.92;41.46
45247;BME280;31529;51.158;7.354;2022-09-03T03:48:46;97564.41;;;18.91;41.65
45247;BME280;31529;51.158;7.354;2022-09-03T03:49:17;97560.09;;;18.90;40.86
45247;BME280;31529;51.158;7.354;2022-09-03T03:49:48;97560.88;;;18.91;41.08
45247;BME280;31529;51.158;7.354;2022-09-03T03:50:20;97567.09;;;18.91;41.21
45247;BME280;31529;51.158;7.354;2022-09-03T03:50:51;97562.47;;;18.92;41.17
45247;BME280;31529;51.158;7.354;2022-09-03T03:51:23;97569.81;;;18.91;41.37
45247;BME280;31529;51.158;7.354;2022-09-03T03:51:54;97565.16;;;18.92;40.98
45247;BME280;31529;51.158;7.354;2022-09-03T03:52:25;97566.72;;;18.93;40.99
45247;BME280;31529;51.158;7.354;2022-09-03T03:53:00;97565.94;;;18.92;40.78
45247;BME280;31529;51.158;7.354;2022-09-03T03:53:31;97564.41;;;18.91;41.64
45247;BME280;31529;51.158;7.354;2022-09-03T03:54:03;97556.63;;;18.90;40.91
45247;BME280;31529;51.158;7.354;2022-09-03T03:54:34;97559.34;;;18.90;41.65
45247;BME280;31529;51.158;7.354;2022-09-03T03:55:06;97557.75;;;18.89;41.70
45247;BME280;31529;51.158;7.354;2022-09-03T03:55:37;97558.91;;;18.88;41.47
45247;BME280;31529;51.158;7.354;2022-09-03T03:56:10;97559.34;;;18.90;41.46
45247;BME280;31529;51.158;7.354;2022-09-03T03:56:43;97558.56;;;18.89;40.98